Butgenbach, Belgium
Current Conditions -  °F | °C
As of 6:44 AM on Tuesday 21 Oct 2014 (Local Time) from EBLB Reporting Station
Broken Clouds Broken Clouds  
Wind Chill: 44°   Ceiling: 1700
Heat Index: 48°   Visibility: 6mi
Dew Point: 46°   Wind: 9mph
Humidity: 93%   Direction: 220°SW
Pressure: 29.85"   Gusts: NA
Location:  50.43°N, 6.21°E
Report Text: EBLB 210444Z 22008KT 9999 FEW008 SCT014 BKN017 09/08 Q1011 GRN
Loading
Personal Weather Stations






























Interactive Weather Map
Tropical Storm Tracking
New forecast layout! Learn more

10-Day Weather Forecast

Advertisements
Track Severe Weather on mobile